This is the latest recevied weather packets stored in our database for station/object OE5WWO. If no packets are shown the sender has not sent any weather packets the latest 10 day(s).
| Time | Temp. | Humidity | Pressure | Rain* | Wind** | Luminosity | Snow |
|---|---|---|---|---|---|---|---|
| 1777599340 | 3.89° C | 71% | 1028.5 hPa | 0 mm | - | - | - |
| 1777599051 | 3.89° C | 71% | 1028.4 hPa | 0 mm | - | - | - |
| 1777598740 | 3.89° C | 70% | 1028.4 hPa | 0 mm | - | - | - |
| 1777597259 | 4.44° C | 68% | 1028.4 hPa | 0 mm | - | - | - |
| 1777595452 | 4.44° C | 65% | 1028.5 hPa | 0 mm | - | - | - |
| 1777595136 | 4.44° C | 65% | 1028.6 hPa | 0 mm | - | - | - |
| 1777594235 | 5° C | 65% | 1028.7 hPa | 0 mm | - | - | - |
| 1777593935 | 5° C | 64% | 1028.7 hPa | 0 mm | - | - | - |
| 1777593336 | 5° C | 64% | 1028.7 hPa | 0 mm | - | - | - |
| 1777591536 | 5.56° C | 60% | 1028.7 hPa | 0 mm | - | - | - |
| 1777590635 | 5.56° C | 59% | 1028.8 hPa | 0 mm | - | - | - |
| 1777589736 | 6.11° C | 57% | 1028.7 hPa | 0 mm | - | - | - |
| 1777587936 | 6.67° C | 55% | 1028.7 hPa | 0 mm | - | - | - |
| 1777586736 | 6.67° C | 54% | 1028.8 hPa | 0 mm | - | - | - |
| 1777586447 | 6.67° C | 54% | 1028.8 hPa | 0 mm | - | - | - |
| 1777586135 | 6.67° C | 55% | 1028.8 hPa | 0 mm | - | - | - |
| 1777585547 | 6.67° C | 55% | 1028.7 hPa | 0 mm | - | - | - |
| 1777582540 | 7.78° C | 54% | 1028.6 hPa | 0 mm | - | - | - |
| 1777582240 | 7.78° C | 53% | 1028.7 hPa | 0 mm | - | - | - |
| 1777581340 | 7.78° C | 52% | 1028.7 hPa | 0 mm | - | - | - |
| 1777579252 | 8.89° C | 50% | 1028.5 hPa | 0 mm | - | - | - |
| 1777578641 | 8.89° C | 50% | 1028.5 hPa | 0 mm | - | - | - |
| 1777574749 | 11.11° C | 40% | 1027.8 hPa | 0 mm | - | - | - |
| 1777573851 | 11.67° C | 39% | 1027.7 hPa | 0 mm | - | - | - |
| 1777573539 | 12.22° C | 37% | 1027.7 hPa | 0 mm | - | - | - |
* Rain latest hour (hover to see other rain measurements)
** Current wind speed in m/s (hover to see current wind gust speed)